createdAt,value
2022-12-18T00:02:14.217Z,51.25
2022-12-18T00:04:40.886Z,53.88
2022-12-18T00:07:07.686Z,54.30
2022-12-18T00:09:40.286Z,51.28
2022-12-18T00:14:43.031Z,54.50
2022-12-18T00:17:10.081Z,54.10
2022-12-18T00:19:36.844Z,51.22
2022-12-18T00:22:03.705Z,50.03
2022-12-18T00:24:30.436Z,51.72
2022-12-18T00:26:57.103Z,53.45
2022-12-18T00:29:23.769Z,53.08
2022-12-18T00:31:50.883Z,54.17
2022-12-18T00:34:17.996Z,55.20
2022-12-18T00:36:44.677Z,50.97
2022-12-18T00:39:12.944Z,53.47
2022-12-18T00:41:58.495Z,53.70
2022-12-18T00:44:25.861Z,52.47
2022-12-18T00:46:52.591Z,54.28
2022-12-18T00:49:19.757Z,53.05
2022-12-18T00:51:47.125Z,53.97
2022-12-18T00:54:14.342Z,54.45
2022-12-18T00:56:48.428Z,54.55
2022-12-18T00:59:16.452Z,52.30
2022-12-18T01:01:43.722Z,52.88
2022-12-18T01:04:11.062Z,53.50
2022-12-18T01:06:37.989Z,51.90
2022-12-18T01:09:05.142Z,53.97
2022-12-18T01:11:32.131Z,50.85
2022-12-18T01:13:58.932Z,49.10
2022-12-18T01:16:25.749Z,49.13
2022-12-18T01:18:54.136Z,48.88
2022-12-18T01:21:21.405Z,49.38
2022-12-18T01:23:51.743Z,50.65
2022-12-18T01:26:18.489Z,47.80
2022-12-18T01:28:45.427Z,47.55
2022-12-18T01:31:12.589Z,48.17
2022-12-18T01:33:39.860Z,48.03
2022-12-18T01:36:06.979Z,46.85
2022-12-18T01:38:33.696Z,47.35
2022-12-18T01:41:01.314Z,47.15
2022-12-18T01:43:43.209Z,45.22
2022-12-18T01:46:10.415Z,46.35
2022-12-18T01:48:37.480Z,46.35
2022-12-18T01:51:05.350Z,44.65
2022-12-18T01:53:32.040Z,44.13
2022-12-18T01:55:59.689Z,45.45
2022-12-18T01:58:36.120Z,44.30
2022-12-18T02:01:02.857Z,44.42
2022-12-18T02:03:33.125Z,43.75
2022-12-18T02:06:15.158Z,40.90
2022-12-18T02:08:49.409Z,39.75
2022-12-18T02:11:22.283Z,35.28
2022-12-18T02:13:51.976Z,37.22
2022-12-18T02:16:32.158Z,38.15
2022-12-18T02:19:01.419Z,37.70
2022-12-18T02:21:45.974Z,37.65
2022-12-18T02:24:25.272Z,36.90
2022-12-18T02:26:53.846Z,37.20
2022-12-18T02:29:54.330Z,37.85
2022-12-18T02:32:29.870Z,34.63
2022-12-18T02:34:57.969Z,35.47
2022-12-18T02:37:27.721Z,33.92
2022-12-18T02:39:55.818Z,33.38
2022-12-18T02:42:23.338Z,34.33
2022-12-18T02:44:51.445Z,34.28
2022-12-18T02:47:23.364Z,33.03
2022-12-18T02:49:59.001Z,34.00
2022-12-18T02:52:37.817Z,35.28
2022-12-18T02:55:25.512Z,34.45
2022-12-18T02:58:03.474Z,35.65
2022-12-18T03:01:05.001Z,35.03
2022-12-18T03:03:38.642Z,36.08
2022-12-18T03:06:08.588Z,35.88
2022-12-18T03:08:47.862Z,40.55
2022-12-18T03:11:16.618Z,43.90
2022-12-18T03:13:45.631Z,45.58
2022-12-18T03:16:16.532Z,45.40
2022-12-18T03:18:48.502Z,46.60
2022-12-18T03:21:16.674Z,49.72
2022-12-18T03:23:45.656Z,47.42
2022-12-18T03:26:16.419Z,46.83
2022-12-18T03:28:45.914Z,46.70
2022-12-18T03:31:13.916Z,45.58
2022-12-18T03:33:43.626Z,45.95
2022-12-18T03:36:10.644Z,44.60
2022-12-18T03:38:38.694Z,44.80
2022-12-18T03:41:13.006Z,42.25
2022-12-18T03:44:01.841Z,40.30
2022-12-18T03:46:31.546Z,40.67
2022-12-18T03:49:03.925Z,43.10
2022-12-18T03:51:39.892Z,41.60
2022-12-18T03:54:07.808Z,40.95
2022-12-18T03:56:48.492Z,42.50
2022-12-18T03:59:17.514Z,38.97
2022-12-18T04:01:47.192Z,40.80
2022-12-18T04:04:16.463Z,41.42
2022-12-18T04:06:44.718Z,40.20
2022-12-18T04:09:13.155Z,41.72
2022-12-18T04:11:45.383Z,41.03
2022-12-18T04:14:17.627Z,38.72
2022-12-18T04:16:45.359Z,39.80
2022-12-18T04:19:15.369Z,38.78
2022-12-18T04:21:44.279Z,40.70
2022-12-18T04:24:12.737Z,39.63
2022-12-18T04:26:47.355Z,38.65
2022-12-18T04:29:18.861Z,37.42
2022-12-18T04:31:46.286Z,40.15
2022-12-18T04:34:13.070Z,39.90
2022-12-18T04:36:47.546Z,39.00
2022-12-18T04:39:15.125Z,39.17
2022-12-18T04:41:42.213Z,37.88
2022-12-18T04:44:09.928Z,37.50
2022-12-18T04:46:36.577Z,39.75
2022-12-18T04:49:03.296Z,39.00
2022-12-18T04:51:29.978Z,39.22
2022-12-18T04:53:56.649Z,37.15
2022-12-18T04:56:23.407Z,37.72
2022-12-18T04:58:50.433Z,37.30
2022-12-18T05:01:18.199Z,38.60
2022-12-18T05:03:45.543Z,36.88
2022-12-18T05:06:12.430Z,38.88
2022-12-18T05:08:39.131Z,35.92
2022-12-18T05:11:07.392Z,37.78
2022-12-18T05:13:34.600Z,36.38
2022-12-18T05:16:01.389Z,35.28
2022-12-18T05:18:28.283Z,35.70
2022-12-18T05:20:55.278Z,36.00
2022-12-18T05:23:22.921Z,33.33
2022-12-18T05:26:08.704Z,35.38
2022-12-18T05:28:35.994Z,33.08
2022-12-18T05:31:03.905Z,33.65
2022-12-18T05:33:31.761Z,33.15
2022-12-18T05:35:59.396Z,32.40
2022-12-18T05:38:26.935Z,31.85
2022-12-18T05:40:53.910Z,33.88
2022-12-18T05:43:22.605Z,33.90
2022-12-18T05:45:49.479Z,32.05
2022-12-18T05:48:16.855Z,30.50
2022-12-18T05:50:46.427Z,30.95
2022-12-18T05:53:13.999Z,31.02
2022-12-18T05:55:42.070Z,31.80
2022-12-18T05:58:09.758Z,32.80
2022-12-18T06:00:41.288Z,32.03
2022-12-18T06:03:09.672Z,33.42
2022-12-18T06:05:38.210Z,32.92
2022-12-18T06:08:05.455Z,33.00
2022-12-18T06:10:32.581Z,32.33
2022-12-18T06:12:59.456Z,32.03
2022-12-18T06:15:26.126Z,31.65
2022-12-18T06:17:52.856Z,32.97
2022-12-18T06:20:20.002Z,34.33
2022-12-18T06:22:46.878Z,34.50
2022-12-18T06:25:13.615Z,33.15
2022-12-18T06:27:40.418Z,31.13
2022-12-18T06:30:09.271Z,31.10
2022-12-18T06:32:35.983Z,31.38
2022-12-18T06:35:02.641Z,30.25
2022-12-18T06:37:29.574Z,29.98
2022-12-18T06:39:57.559Z,27.13
2022-12-18T06:42:24.543Z,28.60
2022-12-18T06:44:51.274Z,28.45
2022-12-18T06:47:18.000Z,27.50
2022-12-18T06:49:44.676Z,28.58
2022-12-18T06:52:11.351Z,29.05
2022-12-18T06:54:38.181Z,28.20
2022-12-18T06:57:04.866Z,27.05
2022-12-18T06:59:31.576Z,27.55
2022-12-18T07:01:58.312Z,29.42
2022-12-18T07:04:30.301Z,30.33
2022-12-18T07:06:57.004Z,30.15
2022-12-18T07:09:23.853Z,31.42
2022-12-18T07:11:51.282Z,31.67
2022-12-18T07:14:18.038Z,30.80
2022-12-18T07:16:44.862Z,30.25
2022-12-18T07:19:11.606Z,28.90
2022-12-18T07:21:38.298Z,31.80
2022-12-18T07:24:05.298Z,30.10
2022-12-18T07:26:32.018Z,30.40
2022-12-18T07:28:59.074Z,28.80
2022-12-18T07:31:26.283Z,30.52
2022-12-18T07:33:52.995Z,30.50
2022-12-18T07:36:19.725Z,29.48
2022-12-18T07:38:48.259Z,30.30
2022-12-18T07:41:15.347Z,30.25
2022-12-18T07:43:42.924Z,31.15
2022-12-18T07:46:10.775Z,31.05
2022-12-18T07:48:39.943Z,30.73
2022-12-18T07:51:07.346Z,29.23
2022-12-18T07:53:34.629Z,31.98
2022-12-18T07:58:51.535Z,30.13
2022-12-18T08:01:18.547Z,32.63
2022-12-18T08:03:46.203Z,32.50
2022-12-18T08:06:12.984Z,32.05
2022-12-18T08:08:41.678Z,34.00
2022-12-18T08:11:08.683Z,33.20
2022-12-18T08:13:35.560Z,31.73
2022-12-18T08:16:04.427Z,31.77
2022-12-18T08:18:32.784Z,32.35
2022-12-18T08:21:08.537Z,32.03
2022-12-18T08:23:40.726Z,30.15
2022-12-18T08:26:09.585Z,31.67
2022-12-18T08:28:36.923Z,31.73
2022-12-18T08:31:03.774Z,30.55
2022-12-18T08:33:30.545Z,30.40
2022-12-18T08:35:57.260Z,29.27
2022-12-18T08:38:24.286Z,30.92
2022-12-18T08:40:51.051Z,30.30
2022-12-18T08:43:36.674Z,30.15
2022-12-18T08:46:03.787Z,28.20
2022-12-18T08:48:30.684Z,29.75
2022-12-18T08:50:58.093Z,30.15
2022-12-18T08:53:35.449Z,30.52
2022-12-18T08:56:02.991Z,30.38
2022-12-18T08:58:30.268Z,30.27
2022-12-18T09:01:04.608Z,29.08
2022-12-18T09:03:32.348Z,28.67
2022-12-18T09:05:59.633Z,27.60
2022-12-18T09:08:26.827Z,30.63
2022-12-18T09:10:53.751Z,29.10
2022-12-18T09:13:20.521Z,30.48
2022-12-18T09:15:51.260Z,31.45
2022-12-18T09:18:18.696Z,31.88
2022-12-18T09:20:45.583Z,31.85
2022-12-18T09:23:13.277Z,33.35
2022-12-18T09:25:40.112Z,30.42
2022-12-18T09:28:17.773Z,31.35
2022-12-18T09:30:47.114Z,30.98
2022-12-18T09:33:14.012Z,32.33
2022-12-18T09:35:42.285Z,32.92
2022-12-18T09:38:12.871Z,31.23
2022-12-18T09:40:46.025Z,31.95
2022-12-18T09:43:17.013Z,33.95
2022-12-18T09:45:46.050Z,33.53
2022-12-18T09:48:22.915Z,34.67
2022-12-18T09:50:50.644Z,33.55
2022-12-18T09:53:20.502Z,34.53
2022-12-18T09:55:48.567Z,33.10
2022-12-18T09:58:21.839Z,34.28
2022-12-18T10:00:48.760Z,31.90
2022-12-18T10:03:16.743Z,31.92
2022-12-18T10:05:43.956Z,31.58
2022-12-18T10:08:10.678Z,31.83
2022-12-18T10:10:43.592Z,31.58
2022-12-18T10:13:16.598Z,33.33
2022-12-18T10:15:55.725Z,34.17
2022-12-18T10:18:35.028Z,33.60
2022-12-18T10:21:08.645Z,32.78
2022-12-18T10:23:58.807Z,30.88
2022-12-18T10:26:26.016Z,33.17
2022-12-18T10:28:53.186Z,30.02
2022-12-18T10:31:21.645Z,32.45
2022-12-18T10:33:51.964Z,32.78
2022-12-18T10:36:18.660Z,32.97
2022-12-18T10:38:45.423Z,33.00
2022-12-18T10:41:18.285Z,32.75
2022-12-18T10:43:45.063Z,31.77
2022-12-18T10:46:11.766Z,32.50
2022-12-18T10:48:41.959Z,36.05
2022-12-18T10:51:12.078Z,33.67
2022-12-18T10:53:41.357Z,34.60
2022-12-18T10:56:08.216Z,35.60
2022-12-18T10:58:36.343Z,31.55
2022-12-18T11:01:08.306Z,31.33
2022-12-18T11:03:43.194Z,30.63
2022-12-18T11:06:10.299Z,32.70
2022-12-18T11:08:37.915Z,31.70
2022-12-18T11:11:07.970Z,31.98
2022-12-18T11:13:35.451Z,31.42
2022-12-18T11:16:02.625Z,31.17
2022-12-18T11:18:36.995Z,33.42
2022-12-18T11:21:12.006Z,33.15
2022-12-18T11:23:46.878Z,33.80
2022-12-18T11:28:43.568Z,33.60
2022-12-18T11:31:18.425Z,34.00
2022-12-18T11:34:19.624Z,35.35
2022-12-18T11:36:45.772Z,35.85
2022-12-18T11:39:15.505Z,36.38
2022-12-18T11:42:10.578Z,39.80
2022-12-18T11:44:43.391Z,37.70
2022-12-18T11:47:22.591Z,40.40
2022-12-18T11:49:51.184Z,40.80
2022-12-18T11:52:17.913Z,39.25
2022-12-18T11:54:44.680Z,40.53
2022-12-18T11:57:14.638Z,38.67
2022-12-18T11:59:47.735Z,40.38
2022-12-18T12:02:35.124Z,39.73
2022-12-18T12:05:14.127Z,39.72
2022-12-18T12:08:04.796Z,38.83
2022-12-18T12:10:43.653Z,35.63
2022-12-18T12:13:11.861Z,38.03
2022-12-18T12:16:00.243Z,35.40
2022-12-18T12:18:42.394Z,35.05
2022-12-18T12:21:16.127Z,33.90
2022-12-18T12:26:18.172Z,35.13
2022-12-18T12:28:57.076Z,34.72
2022-12-18T12:31:32.920Z,37.00
2022-12-18T12:34:02.843Z,41.03
2022-12-18T12:36:38.667Z,38.90
2022-12-18T12:39:12.482Z,39.55
2022-12-18T12:44:35.687Z,38.05
2022-12-18T12:47:09.095Z,38.80
2022-12-18T12:49:41.012Z,39.53
2022-12-18T12:52:34.025Z,42.00
2022-12-18T12:55:01.204Z,40.95
2022-12-18T12:57:34.423Z,41.70
2022-12-18T13:00:04.775Z,40.83
2022-12-18T13:02:47.134Z,38.83
2022-12-18T13:05:32.747Z,37.67
2022-12-18T13:08:12.684Z,36.08
2022-12-18T13:10:40.691Z,37.88
2022-12-18T13:13:11.592Z,37.75
2022-12-18T13:15:41.399Z,39.78
2022-12-18T13:18:11.232Z,38.05
2022-12-18T13:20:52.460Z,39.40
2022-12-18T13:25:49.227Z,35.67
2022-12-18T13:28:16.516Z,36.10
2022-12-18T13:31:01.928Z,39.08
2022-12-18T13:33:34.850Z,36.88
2022-12-18T13:36:01.617Z,39.00
2022-12-18T13:38:39.215Z,36.97
2022-12-18T13:41:26.270Z,38.60
2022-12-18T13:43:54.326Z,38.83
2022-12-18T13:46:31.055Z,39.88
2022-12-18T13:48:58.225Z,39.75
2022-12-18T13:51:25.722Z,40.63
2022-12-18T13:54:01.574Z,40.84
2022-12-18T13:56:29.870Z,39.13
2022-12-18T13:59:19.388Z,39.67
2022-12-18T14:02:02.853Z,39.45
2022-12-18T14:04:32.167Z,38.13
2022-12-18T14:06:59.307Z,38.47
2022-12-18T14:09:28.154Z,39.03
2022-12-18T14:12:15.702Z,42.65
2022-12-18T14:14:44.354Z,39.50
2022-12-18T14:17:12.474Z,40.08
2022-12-18T14:19:42.652Z,40.22
2022-12-18T14:22:19.715Z,41.27
2022-12-18T14:24:46.680Z,45.17
2022-12-18T14:27:20.435Z,44.47
2022-12-18T14:29:47.188Z,43.03
2022-12-18T14:32:18.676Z,43.67
2022-12-18T14:34:46.818Z,42.50
2022-12-18T14:37:15.178Z,43.90
2022-12-18T14:39:52.950Z,40.83
2022-12-18T14:42:19.637Z,41.75
2022-12-18T14:47:33.296Z,44.17
2022-12-18T14:50:00.759Z,44.60
2022-12-18T14:52:29.384Z,43.83
2022-12-18T14:54:56.102Z,43.42
2022-12-18T14:57:27.517Z,42.35
2022-12-18T14:59:54.167Z,43.75
2022-12-18T15:02:25.114Z,43.28
2022-12-18T15:05:02.551Z,43.42
2022-12-18T15:07:40.249Z,45.33
2022-12-18T15:10:15.399Z,45.42
2022-12-18T15:12:46.388Z,44.22
2022-12-18T15:15:31.675Z,47.08
2022-12-18T15:17:59.289Z,46.33
2022-12-18T15:20:26.028Z,42.17
2022-12-18T15:22:52.957Z,42.75
2022-12-18T15:25:45.819Z,45.33
2022-12-18T15:28:26.502Z,46.30
2022-12-18T15:31:07.169Z,44.67
2022-12-18T15:33:36.524Z,48.67
2022-12-18T15:36:09.750Z,46.50
2022-12-18T15:38:36.745Z,43.65
2022-12-18T15:41:13.079Z,43.08
2022-12-18T15:43:41.107Z,42.50
2022-12-18T15:46:11.555Z,43.45
2022-12-18T15:48:42.604Z,40.75
2022-12-18T15:51:14.654Z,41.50
2022-12-18T15:53:41.584Z,41.95
2022-12-18T15:56:50.667Z,40.13
2022-12-18T15:59:18.963Z,38.75
2022-12-18T16:01:47.038Z,41.05
2022-12-18T16:04:15.323Z,44.03
2022-12-18T16:07:12.788Z,44.92
2022-12-18T16:09:28.891Z,44.83
2022-12-18T16:11:55.614Z,44.60
2022-12-18T16:14:30.395Z,46.05
2022-12-18T16:17:01.394Z,44.88
2022-12-18T16:19:28.628Z,45.75
2022-12-18T16:21:56.475Z,47.58
2022-12-18T16:24:24.033Z,46.63
2022-12-18T16:26:52.426Z,45.25
2022-12-18T16:29:19.719Z,44.40
2022-12-18T16:31:46.452Z,44.60
2022-12-18T16:34:23.638Z,43.60
2022-12-18T16:37:00.202Z,45.70
2022-12-18T16:39:31.219Z,43.58
2022-12-18T16:41:58.014Z,46.20
2022-12-18T16:44:25.738Z,44.53
2022-12-18T16:46:52.715Z,46.17
2022-12-18T16:49:22.333Z,47.08
2022-12-18T16:51:49.103Z,45.90
2022-12-18T16:54:19.152Z,50.08
2022-12-18T16:56:49.892Z,56.88
2022-12-18T16:59:17.028Z,51.20
2022-12-18T17:01:44.840Z,49.78
2022-12-18T17:04:11.654Z,49.97
2022-12-18T17:06:42.856Z,50.08
2022-12-18T17:09:17.702Z,49.47
2022-12-18T17:11:45.177Z,50.15
2022-12-18T17:14:19.430Z,51.38
2022-12-18T17:16:46.658Z,48.53
2022-12-18T17:19:17.242Z,48.00
2022-12-18T17:21:45.175Z,48.03
2022-12-18T17:24:11.916Z,47.50
2022-12-18T17:26:39.020Z,49.33
2022-12-18T17:29:05.728Z,48.45
2022-12-18T17:31:32.998Z,48.03
2022-12-18T17:34:01.217Z,48.00
2022-12-18T17:36:32.336Z,52.15
2022-12-18T17:39:00.592Z,51.85
2022-12-18T17:41:28.019Z,53.05
2022-12-18T17:44:02.146Z,55.97
2022-12-18T17:46:30.938Z,52.15
2022-12-18T17:48:58.785Z,52.60
2022-12-18T17:51:25.702Z,53.08
2022-12-18T17:53:53.028Z,51.55
2022-12-18T17:56:20.496Z,51.97
2022-12-18T17:58:48.236Z,49.95
2022-12-18T18:01:16.598Z,55.55
2022-12-18T18:03:44.334Z,53.75
2022-12-18T18:06:11.708Z,54.28
2022-12-18T18:08:38.968Z,54.58
2022-12-18T18:11:25.102Z,54.33
2022-12-18T18:14:01.657Z,54.55
2022-12-18T18:16:32.679Z,55.95
2022-12-18T18:19:01.949Z,57.58
2022-12-18T18:21:29.205Z,59.33
2022-12-18T18:23:58.832Z,58.75
2022-12-18T18:26:27.069Z,62.35
2022-12-18T18:28:55.724Z,60.72
2022-12-18T18:31:23.301Z,60.95
2022-12-18T18:33:50.247Z,62.40
2022-12-18T18:36:17.328Z,66.60
2022-12-18T18:38:48.261Z,62.72
2022-12-18T18:41:15.500Z,66.30
2022-12-18T18:43:42.832Z,65.82
2022-12-18T18:46:12.342Z,62.50
2022-12-18T18:48:42.384Z,64.60
2022-12-18T18:51:17.759Z,58.95
2022-12-18T18:53:49.405Z,63.92
2022-12-18T18:59:04.649Z,65.25
2022-12-18T19:01:31.751Z,59.13
2022-12-18T19:03:58.747Z,61.42
2022-12-18T19:06:27.021Z,63.30
2022-12-18T19:08:55.603Z,56.85
2022-12-18T19:11:42.467Z,55.78
2022-12-18T19:14:09.967Z,50.17
2022-12-18T19:16:37.039Z,52.80
2022-12-18T19:19:04.517Z,49.05
2022-12-18T19:21:34.193Z,48.72
2022-12-18T19:24:02.856Z,49.05
2022-12-18T19:26:29.631Z,47.67
2022-12-18T19:29:17.607Z,49.75
2022-12-18T19:31:46.030Z,45.25
2022-12-18T19:34:13.616Z,57.03
2022-12-18T19:36:40.441Z,50.45
2022-12-18T19:39:09.573Z,50.95
2022-12-18T19:41:36.311Z,53.47
2022-12-18T19:44:07.893Z,47.95
2022-12-18T19:46:36.148Z,49.20
2022-12-18T19:49:07.551Z,50.15
2022-12-18T19:51:34.537Z,49.78
2022-12-18T19:54:02.190Z,48.28
2022-12-18T19:56:31.166Z,45.80
2022-12-18T19:58:58.261Z,47.63
2022-12-18T20:01:25.509Z,45.47
2022-12-18T20:03:54.446Z,48.85
2022-12-18T20:06:30.752Z,46.67
2022-12-18T20:09:00.809Z,48.53
2022-12-18T20:11:28.752Z,46.38
2022-12-18T20:13:55.510Z,47.25
2022-12-18T20:16:23.168Z,46.85
2022-12-18T20:18:49.998Z,50.40
2022-12-18T20:21:17.977Z,49.63
2022-12-18T20:23:45.125Z,56.28
2022-12-18T20:26:12.208Z,56.13
2022-12-18T20:28:40.660Z,55.13
2022-12-18T20:31:08.478Z,57.92
2022-12-18T20:33:37.499Z,60.05
2022-12-18T20:36:06.384Z,60.38
2022-12-18T20:38:34.945Z,60.50
2022-12-18T20:41:02.575Z,64.85
2022-12-18T20:43:30.212Z,61.72
2022-12-18T20:46:01.995Z,63.72
2022-12-18T20:48:29.036Z,63.28
2022-12-18T20:51:06.942Z,63.88
2022-12-18T20:53:35.334Z,63.28
2022-12-18T20:56:06.263Z,64.28
2022-12-18T20:58:33.331Z,63.25
2022-12-18T21:01:05.291Z,64.63
2022-12-18T21:03:32.408Z,70.47
2022-12-18T21:05:59.393Z,70.22
2022-12-18T21:08:26.189Z,71.50
2022-12-18T21:10:53.277Z,70.78
2022-12-18T21:13:22.552Z,70.78
2022-12-18T21:15:49.298Z,69.72
2022-12-18T21:18:16.061Z,69.82
2022-12-18T21:20:42.722Z,67.43
2022-12-18T21:23:16.640Z,65.25
2022-12-18T21:28:10.198Z,55.50
2022-12-18T21:30:37.043Z,60.95
2022-12-18T21:33:03.853Z,60.08
2022-12-18T21:35:30.982Z,60.33
2022-12-18T21:37:58.916Z,58.65
2022-12-18T21:40:25.554Z,58.15
2022-12-18T21:43:11.280Z,63.20
2022-12-18T21:45:46.945Z,57.40
2022-12-18T21:48:13.796Z,60.80
2022-12-18T21:50:40.573Z,60.20
2022-12-18T21:53:07.424Z,60.20
2022-12-18T21:55:34.415Z,55.60
2022-12-18T21:58:01.202Z,57.97
2022-12-18T22:00:27.886Z,64.43
2022-12-18T22:03:17.742Z,57.05
2022-12-18T22:05:41.911Z,56.17
2022-12-18T22:08:08.618Z,59.53
2022-12-18T22:10:35.718Z,59.70
2022-12-18T22:13:02.535Z,58.45
2022-12-18T22:15:29.320Z,56.95
2022-12-18T22:18:00.288Z,56.70
2022-12-18T22:20:27.990Z,68.28
2022-12-18T22:22:55.959Z,67.45
2022-12-18T22:25:22.672Z,60.38
2022-12-18T22:28:07.891Z,59.50
2022-12-18T22:30:35.111Z,62.05
2022-12-18T22:33:02.591Z,59.92
2022-12-18T22:35:29.570Z,58.80
2022-12-18T22:37:57.999Z,57.17
2022-12-18T22:40:25.786Z,58.50
2022-12-18T22:42:53.446Z,55.95
2022-12-18T22:45:20.434Z,55.70
2022-12-18T22:47:47.347Z,54.13
2022-12-18T22:50:14.683Z,55.00
2022-12-18T22:52:41.481Z,52.90
2022-12-18T22:55:08.361Z,54.72
2022-12-18T22:57:35.535Z,54.47
2022-12-18T23:00:04.660Z,49.92
2022-12-18T23:02:31.624Z,53.20
2022-12-18T23:04:59.517Z,51.97
2022-12-18T23:07:26.302Z,51.42
2022-12-18T23:09:54.203Z,50.10
2022-12-18T23:12:28.146Z,49.22
2022-12-18T23:14:54.736Z,47.88
2022-12-18T23:17:21.432Z,51.03
2022-12-18T23:19:49.398Z,52.15
2022-12-18T23:22:16.752Z,52.42
2022-12-18T23:24:43.397Z,53.60
2022-12-18T23:27:11.676Z,54.20
2022-12-18T23:29:39.069Z,54.30
2022-12-18T23:32:05.754Z,51.90
2022-12-18T23:34:32.456Z,52.10
2022-12-18T23:36:59.208Z,52.65
2022-12-18T23:39:30.124Z,53.90
2022-12-18T23:41:57.620Z,52.45
2022-12-18T23:44:24.666Z,52.05
2022-12-18T23:46:52.875Z,52.30
2022-12-18T23:49:19.733Z,53.55
2022-12-18T23:51:46.489Z,53.45
2022-12-18T23:54:13.168Z,53.60
2022-12-18T23:56:40.167Z,53.85
2022-12-18T23:59:07.290Z,57.42
